Time;durP1;ratioP1;P1;durP2;ratioP2;P2;SDS_P1;SDS_P2;PMS_P1;PMS_P2;Temp;Humidity;BMP_temperature;BMP_pressure;BME280_temperature;BME280_humidity;BME280_pressure;Samples;Min_cycle;Max_cycle;Signal;HPM_P1;HPM_P2
2021/12/23 00:02:02;;;;;;;;;64.50;42.50;;;;;4.34;59.45;101421.59;5015143;28;47487;-76
2021/12/23 00:04:27;;;;;;;;;50.50;37.75;;;;;4.38;59.40;101429.66;5026492;28;45165;-76
2021/12/23 00:06:52;;;;;;;;;51.25;39.50;;;;;4.35;60.05;101426.00;5017927;28;45624;-75
2021/12/23 00:09:18;;;;;;;;;43.75;35.75;;;;;4.26;59.63;101420.34;5038429;28;46256;-76
2021/12/23 00:11:44;;;;;;;;;58.50;39.75;;;;;4.28;59.62;101414.38;5039668;28;45533;-76
2021/12/23 00:14:13;;;;;;;;;51.75;35.00;;;;;4.22;60.08;101411.50;5003863;28;51148;-77
2021/12/23 00:16:56;;;;;;;;;55.50;41.25;;;;;4.24;59.95;101409.81;5021506;28;45502;-76
2021/12/23 00:24:41;;;;;;;;;53.25;37.75;;;;;4.13;60.15;101404.09;5038927;28;45217;-77
2021/12/23 00:27:06;;;;;;;;;61.50;41.50;;;;;4.13;60.67;101401.50;5005889;28;45521;-77
2021/12/23 00:29:32;;;;;;;;;62.00;42.50;;;;;4.07;60.62;101392.47;5037160;28;46092;-76
2021/12/23 00:31:57;;;;;;;;;59.25;41.00;;;;;4.05;60.25;101378.44;5021399;28;45465;-77
2021/12/23 00:34:23;;;;;;;;;46.75;38.25;;;;;4.10;60.26;101393.53;5003863;28;45379;-76
2021/12/23 00:36:49;;;;;;;;;59.25;42.75;;;;;4.07;60.46;101388.16;5019222;28;52196;-76
2021/12/23 00:39:17;;;;;;;;;64.75;41.75;;;;;4.06;60.49;101375.03;5019978;28;45364;-77
2021/12/23 00:41:44;;;;;;;;;52.00;34.25;;;;;4.04;60.37;101392.31;5038423;28;46387;-75
2021/12/23 00:44:10;;;;;;;;;45.75;36.00;;;;;4.00;60.58;101380.88;5038028;28;45408;-76
2021/12/23 00:46:35;;;;;;;;;47.25;32.75;;;;;4.00;60.61;101380.88;5004378;28;45358;-76
2021/12/23 00:49:01;;;;;;;;;46.75;36.75;;;;;3.99;60.73;101372.94;5037921;28;54902;-75
2021/12/23 00:51:28;;;;;;;;;50.75;39.25;;;;;3.98;60.98;101372.03;5038340;28;45538;-76
2021/12/23 00:54:03;;;;;;;;;46.00;37.00;;;;;4.00;61.26;101370.41;5020688;28;45185;-76
2021/12/23 00:56:31;;;;;;;;;51.00;34.00;;;;;4.00;61.04;101370.41;5021637;28;45593;-76
2021/12/23 00:58:57;;;;;;;;;46.00;38.00;;;;;3.94;61.22;101355.34;5020366;28;46824;-76
2021/12/23 01:01:22;;;;;;;;;45.00;34.25;;;;;3.99;61.23;101349.41;5038083;28;45218;-76
2021/12/23 01:03:51;;;;;;;;;58.50;35.25;;;;;4.00;61.29;101357.34;5037693;28;49404;-76
2021/12/23 01:06:16;;;;;;;;;50.25;39.00;;;;;4.00;60.80;101366.91;5038095;28;45333;-77
2021/12/23 01:08:44;;;;;;;;;54.75;38.00;;;;;4.01;61.49;101366.06;5019643;28;59489;-76
2021/12/23 01:11:10;;;;;;;;;44.00;37.25;;;;;3.98;60.76;101356.38;5037267;28;59519;-75
2021/12/23 01:13:38;;;;;;;;;56.25;38.50;;;;;3.98;61.18;101345.91;5019666;28;45766;-76
2021/12/23 01:16:24;;;;;;;;;59.25;41.75;;;;;3.98;61.40;101363.31;5020783;28;45632;-77
2021/12/23 01:18:54;;;;;;;;;55.00;35.25;;;;;3.95;61.56;101343.19;5037741;28;46996;-77
2021/12/23 01:21:19;;;;;;;;;57.75;39.50;;;;;3.97;61.01;101340.63;5037019;28;45422;-76
2021/12/23 01:23:52;;;;;;;;;62.75;36.00;;;;;4.02;61.56;101344.34;5020402;28;45416;-75
2021/12/23 01:26:22;;;;;;;;;54.50;41.00;;;;;4.01;61.28;101348.69;5019964;28;45475;-76
2021/12/23 01:28:53;;;;;;;;;64.00;43.00;;;;;3.97;61.78;101323.22;5020383;28;45742;-76
2021/12/23 01:31:19;;;;;;;;;49.00;37.25;;;;;4.04;61.20;101333.13;5020141;28;46506;-76
2021/12/23 01:33:44;;;;;;;;;64.50;40.75;;;;;4.06;61.25;101328.00;5003699;28;45459;-77
2021/12/23 01:36:10;;;;;;;;;62.50;40.25;;;;;4.09;61.45;101326.38;5037886;28;45538;-77
2021/12/23 01:38:35;;;;;;;;;52.25;33.75;;;;;4.12;61.35;101338.72;5018620;28;61978;-76
2021/12/23 01:41:01;;;;;;;;;54.00;38.25;;;;;4.13;61.12;101336.16;5010662;28;45444;-76
2021/12/23 01:43:26;;;;;;;;;52.50;39.25;;;;;4.09;61.38;101325.50;5037126;28;56327;-75
2021/12/23 01:45:51;;;;;;;;;58.50;43.00;;;;;4.18;61.53;101324.19;5024114;28;56619;-76
2021/12/23 01:48:17;;;;;;;;;56.25;35.25;;;;;4.22;61.39;101330.47;5019252;28;45506;-76
2021/12/23 01:50:43;;;;;;;;;50.25;32.00;;;;;4.25;61.79;101325.34;5019066;28;45400;-76
2021/12/23 01:53:08;;;;;;;;;47.00;38.50;;;;;4.25;61.56;101307.06;5036920;28;52367;-77
2021/12/23 01:55:35;;;;;;;;;45.00;38.00;;;;;4.25;61.18;101314.91;5019694;28;45702;-76
2021/12/23 01:58:00;;;;;;;;;62.75;38.00;;;;;4.30;61.44;101315.09;5003338;28;46349;-76
2021/12/23 02:00:28;;;;;;;;;52.50;38.25;;;;;4.33;61.35;101305.69;5019335;28;45458;-77
2021/12/23 02:02:54;;;;;;;;;59.75;39.25;;;;;4.34;61.60;101315.31;5019352;28;45431;-76
2021/12/23 02:05:19;;;;;;;;;60.00;40.50;;;;;4.35;61.51;101309.25;5019394;28;45162;-77
2021/12/23 02:07:45;;;;;;;;;53.75;39.00;;;;;4.38;61.46;101306.78;5018866;28;47464;-76
2021/12/23 02:10:10;;;;;;;;;51.00;35.50;;;;;4.34;61.67;101294.41;5018990;28;57710;-76
2021/12/23 02:12:36;;;;;;;;;52.75;37.00;;;;;4.35;61.24;101300.50;5015522;28;45320;-76
2021/12/23 02:15:04;;;;;;;;;54.50;39.50;;;;;4.40;61.13;101299.00;5001602;28;45325;-76
2021/12/23 02:17:39;;;;;;;;;51.00;36.00;;;;;4.37;61.10;101294.53;5019341;28;46051;-76
2021/12/23 02:20:08;;;;;;;;;52.00;40.75;;;;;4.40;61.61;101296.38;5036577;28;45366;-76
2021/12/23 02:22:34;;;;;;;;;58.50;45.50;;;;;4.48;61.48;101308.06;5019634;28;45467;-76
2021/12/23 02:25:00;;;;;;;;;64.25;44.00;;;;;4.49;61.13;101304.63;5019396;28;45614;-76
2021/12/23 02:27:25;;;;;;;;;53.25;36.00;;;;;4.51;61.82;101297.72;5002158;28;47346;-76
2021/12/23 02:29:50;;;;;;;;;50.50;39.00;;;;;4.54;61.35;101304.84;5019234;28;45345;-77
2021/12/23 02:32:16;;;;;;;;;66.25;44.25;;;;;4.55;61.26;101298.75;5035027;28;45995;-77
2021/12/23 02:34:42;;;;;;;;;62.50;42.00;;;;;4.53;61.39;101290.88;4985868;28;45591;-77
2021/12/23 02:37:07;;;;;;;;;57.25;43.75;;;;;4.54;61.64;101286.53;5034976;28;63246;-77
2021/12/23 02:39:33;;;;;;;;;47.00;34.50;;;;;4.51;61.21;101278.53;5019198;28;45289;-77
2021/12/23 02:41:58;;;;;;;;;62.25;36.00;;;;;4.57;61.27;101282.28;5001645;28;50806;-77
2021/12/23 02:44:23;;;;;;;;;52.00;39.25;;;;;4.59;61.20;101283.28;5036918;28;45423;-77
2021/12/23 02:46:49;;;;;;;;;61.00;44.00;;;;;4.58;61.35;101281.50;5035879;28;50057;-77
2021/12/23 02:49:15;;;;;;;;;64.75;42.00;;;;;4.59;61.41;101275.44;5036464;28;45428;-77
2021/12/23 02:51:41;;;;;;;;;53.00;39.50;;;;;4.57;61.26;101269.22;5036799;28;45480;-76
2021/12/23 02:54:07;;;;;;;;;61.50;39.25;;;;;4.61;61.39;101275.50;5018723;28;45497;-77
2021/12/23 02:56:32;;;;;;;;;41.50;36.75;;;;;4.57;61.35;101265.72;5035643;28;55549;-77
2021/12/23 02:58:57;;;;;;;;;68.75;42.25;;;;;4.61;61.26;101276.38;5035221;28;53120;-76
2021/12/23 03:01:23;;;;;;;;;62.75;41.25;;;;;4.61;61.35;101273.75;5001181;28;57919;-77
2021/12/23 03:03:49;;;;;;;;;63.25;41.75;;;;;4.58;61.05;101272.72;5018552;28;45444;-75
2021/12/23 03:06:18;;;;;;;;;64.50;41.50;;;;;4.62;61.54;101282.50;5020307;28;46581;-76
2021/12/23 03:08:47;;;;;;;;;55.25;41.50;;;;;4.58;61.40;101264.88;5004070;28;45763;-77
2021/12/23 03:11:15;;;;;;;;;56.75;40.25;;;;;4.63;61.49;101272.09;5018853;28;45397;-77
2021/12/23 03:13:40;;;;;;;;;49.75;39.00;;;;;4.64;61.05;101263.44;5036446;28;45161;-77
2021/12/23 03:16:06;;;;;;;;;50.00;35.25;;;;;4.62;61.27;101249.38;5018598;28;46115;-77
2021/12/23 03:18:31;;;;;;;;;55.75;43.00;;;;;4.65;61.18;101256.50;5001510;28;45263;-77
2021/12/23 03:20:57;;;;;;;;;62.00;39.00;;;;;4.63;60.83;101251.16;5036122;28;45185;-76
2021/12/23 03:23:22;;;;;;;;;49.50;38.25;;;;;4.65;61.36;101249.53;5001877;28;45261;-77
2021/12/23 03:25:48;;;;;;;;;60.25;43.00;;;;;4.64;61.06;101255.59;5018138;28;45977;-77
2021/12/23 03:28:13;;;;;;;;;56.75;39.75;;;;;4.61;61.56;101237.16;5035706;28;52454;-77
2021/12/23 03:30:39;;;;;;;;;62.00;39.25;;;;;4.65;61.38;101253.88;5035670;28;47998;-76
2021/12/23 03:33:04;;;;;;;;;53.00;39.00;;;;;4.64;61.46;101234.66;5035610;28;54240;-76
2021/12/23 03:35:30;;;;;;;;;49.50;39.75;;;;;4.60;61.66;101229.25;5017828;28;56268;-77
2021/12/23 03:37:55;;;;;;;;;56.75;40.00;;;;;4.63;61.18;101222.41;5035003;28;58628;-77
2021/12/23 03:40:21;;;;;;;;;63.00;43.75;;;;;4.61;61.51;101216.22;5035455;28;48521;-76
2021/12/23 03:42:46;;;;;;;;;61.25;42.00;;;;;4.61;61.48;101216.22;5018842;28;45439;-76
2021/12/23 03:45:11;;;;;;;;;48.00;35.50;;;;;4.67;61.53;101226.03;5021042;28;61772;-76
2021/12/23 03:47:37;;;;;;;;;52.50;41.25;;;;;4.67;61.30;101218.19;5021386;28;45469;-77
2021/12/23 03:50:03;;;;;;;;;50.00;36.50;;;;;4.66;61.59;101212.06;5004954;28;45321;-76
2021/12/23 03:52:29;;;;;;;;;50.75;38.75;;;;;4.67;61.08;101223.44;5039683;28;45418;-76
2021/12/23 03:54:54;;;;;;;;;54.25;40.00;;;;;4.66;61.19;101219.03;5020792;28;53612;-75
2021/12/23 03:57:19;;;;;;;;;59.00;39.50;;;;;4.65;61.30;101218.16;5039130;28;49685;-76
2021/12/23 03:59:45;;;;;;;;;61.25;41.75;;;;;4.64;61.32;101215.47;5038546;28;52949;-77
2021/12/23 04:02:10;;;;;;;;;52.00;41.25;;;;;4.59;61.51;101201.31;5038652;28;48938;-76
2021/12/23 04:04:35;;;;;;;;;54.75;41.75;;;;;4.57;61.18;101192.50;5019901;28;64682;-76
2021/12/23 04:07:01;;;;;;;;;63.00;40.00;;;;;4.58;61.00;101205.66;5038022;28;45248;-77
2021/12/23 04:09:27;;;;;;;;;48.50;38.50;;;;;4.55;61.47;101195.06;5025244;28;45480;-76
2021/12/23 04:11:52;;;;;;;;;55.25;39.25;;;;;4.59;61.83;101196.09;5027090;28;45366;-77
2021/12/23 04:14:17;;;;;;;;;52.75;38.00;;;;;4.61;61.68;101194.41;5019808;28;60931;-76
2021/12/23 04:16:43;;;;;;;;;52.50;38.00;;;;;4.57;61.69;101177.69;5038298;28;45427;-75
2021/12/23 04:19:10;;;;;;;;;47.75;38.50;;;;;4.63;61.85;101179.66;5037840;28;57323;-77
2021/12/23 04:21:36;;;;;;;;;52.75;41.00;;;;;4.60;61.55;101172.59;5038637;28;45727;-77
2021/12/23 04:24:02;;;;;;;;;65.25;40.75;;;;;4.65;62.17;101176.28;5037847;28;46538;-76
2021/12/23 04:26:27;;;;;;;;;46.75;32.50;;;;;4.69;61.48;101172.97;5020949;28;45295;-77
2021/12/23 04:28:53;;;;;;;;;60.75;41.25;;;;;4.72;61.73;101178.31;5017039;28;51463;-76
2021/12/23 04:31:20;;;;;;;;;47.50;39.75;;;;;4.77;61.71;101169.78;5020861;28;45530;-76
2021/12/23 04:33:46;;;;;;;;;53.00;40.00;;;;;4.78;61.40;101172.44;5038682;28;46552;-76
2021/12/23 04:36:12;;;;;;;;;55.00;41.50;;;;;4.82;61.34;101170.84;5020529;28;45432;-77
2021/12/23 04:38:38;;;;;;;;;52.25;38.00;;;;;4.83;61.60;101163.03;5020329;28;54412;-77
2021/12/23 04:41:04;;;;;;;;;51.75;37.00;;;;;4.85;61.35;101165.75;5038851;28;45629;-76
2021/12/23 04:43:29;;;;;;;;;65.00;41.50;;;;;4.81;61.55;101158.59;5020195;28;46301;-77
2021/12/23 04:45:55;;;;;;;;;50.25;37.75;;;;;4.86;61.20;101165.78;5020502;28;45478;-76
2021/12/23 04:48:20;;;;;;;;;47.00;39.25;;;;;4.86;61.59;101168.41;5036990;28;54450;-78
2021/12/23 04:50:45;;;;;;;;;57.50;38.25;;;;;4.87;61.65;101166.69;5038171;28;55491;-78
2021/12/23 04:53:11;;;;;;;;;57.00;35.25;;;;;4.88;61.11;101169.34;5037723;28;60092;-76
2021/12/23 04:55:36;;;;;;;;;57.75;37.50;;;;;4.89;61.31;101167.63;5036487;28;57546;-76
2021/12/23 04:58:01;;;;;;;;;46.00;33.75;;;;;4.90;61.74;101166.78;5037780;28;55331;-76
2021/12/23 05:00:27;;;;;;;;;55.00;36.50;;;;;4.89;61.35;101157.16;5037957;28;53541;-76
2021/12/23 05:02:52;;;;;;;;;55.50;38.50;;;;;4.90;61.37;101158.94;5036599;28;56620;-76
2021/12/23 05:05:18;;;;;;;;;55.25;38.25;;;;;4.90;61.70;101161.56;5037348;28;59573;-77
2021/12/23 05:07:43;;;;;;;;;52.50;40.75;;;;;4.86;61.32;101157.94;5038198;28;45238;-76
2021/12/23 05:10:09;;;;;;;;;51.50;41.00;;;;;4.93;61.55;101157.34;5020264;28;45439;-76
2021/12/23 05:12:41;;;;;;;;;48.00;39.75;;;;;4.87;61.29;101138.78;5016483;28;45381;-77
2021/12/23 05:15:08;;;;;;;;;47.50;37.00;;;;;4.91;61.59;101137.19;5005423;28;45555;-77
2021/12/23 05:17:33;;;;;;;;;56.25;41.75;;;;;4.95;61.59;101140.00;5037758;28;45514;-77
2021/12/23 05:19:58;;;;;;;;;57.75;41.75;;;;;4.99;61.70;101139.25;5020163;28;56249;-76
2021/12/23 05:22:24;;;;;;;;;46.25;34.50;;;;;5.02;61.59;101127.16;5019334;28;61927;-76
2021/12/23 05:24:50;;;;;;;;;54.25;41.00;;;;;5.02;61.27;101125.41;5037228;28;45552;-77
2021/12/23 05:27:15;;;;;;;;;51.50;38.50;;;;;5.04;61.80;101128.09;5036568;28;45483;-77
2021/12/23 05:29:41;;;;;;;;;53.25;38.50;;;;;5.05;61.83;101117.66;5023272;28;45466;-76
2021/12/23 05:32:07;;;;;;;;;45.50;37.00;;;;;5.08;61.75;101117.78;5036588;28;61627;-77
2021/12/23 05:34:32;;;;;;;;;54.50;41.00;;;;;5.10;61.44;101117.84;5036779;28;45562;-77
2021/12/23 05:36:58;;;;;;;;;61.25;43.00;;;;;5.12;61.62;101111.84;5003291;28;45741;-77
2021/12/23 05:39:24;;;;;;;;;62.25;43.50;;;;;5.12;61.40;101111.84;5037155;28;45745;-77
2021/12/23 05:41:49;;;;;;;;;52.00;40.25;;;;;5.13;61.57;101113.63;5019778;28;48690;-77
2021/12/23 05:44:14;;;;;;;;;61.50;41.00;;;;;5.12;61.15;101109.22;5037733;28;45506;-76
2021/12/23 05:46:40;;;;;;;;;50.50;35.00;;;;;5.11;61.38;101115.28;5019052;28;51571;-78
2021/12/23 05:49:06;;;;;;;;;54.50;38.25;;;;;5.07;61.17;101100.31;5003467;28;45663;-77
2021/12/23 05:51:31;;;;;;;;;50.00;36.50;;;;;5.12;61.60;101110.97;5017154;28;46592;-77
2021/12/23 05:53:57;;;;;;;;;68.25;45.00;;;;;5.11;61.15;101106.53;5013679;28;45433;-76
2021/12/23 05:56:22;;;;;;;;;52.75;38.50;;;;;5.13;61.07;101102.25;5019355;28;45328;-76
2021/12/23 05:58:48;;;;;;;;;49.50;39.25;;;;;5.15;61.48;101098.84;5019284;28;45572;-77
2021/12/23 06:01:13;;;;;;;;;49.25;34.50;;;;;5.16;61.54;101111.09;5003007;28;46381;-76
2021/12/23 06:03:40;;;;;;;;;52.25;40.00;;;;;5.16;61.43;101108.47;5037478;28;54192;-77
2021/12/23 06:06:05;;;;;;;;;45.75;38.00;;;;;5.16;61.42;101102.38;5037427;28;45226;-77
2021/12/23 06:08:31;;;;;;;;;54.75;40.50;;;;;5.15;61.49;101111.94;5036769;28;45284;-78
2021/12/23 06:10:56;;;;;;;;;64.00;42.00;;;;;5.13;61.34;101113.63;5018814;28;57951;-76
2021/12/23 06:13:21;;;;;;;;;41.00;32.50;;;;;5.10;61.53;101105.66;5028814;28;59929;-76
2021/12/23 06:15:47;;;;;;;;;54.00;42.75;;;;;5.11;61.51;101110.03;5018918;28;54897;-78
2021/12/23 06:18:12;;;;;;;;;56.00;40.25;;;;;5.11;61.78;101109.16;5031212;28;45400;-77
2021/12/23 06:20:37;;;;;;;;;48.50;41.00;;;;;5.12;61.87;101106.63;5022277;28;47528;-78
2021/12/23 06:23:04;;;;;;;;;50.50;40.00;;;;;5.14;61.63;101111.91;5036076;28;45470;-78
2021/12/23 06:25:29;;;;;;;;;55.25;38.75;;;;;5.15;61.40;101121.53;5036174;28;45448;-77
2021/12/23 06:27:55;;;;;;;;;55.50;38.25;;;;;5.16;62.14;101124.19;5036429;28;45244;-77
2021/12/23 06:30:21;;;;;;;;;59.50;40.00;;;;;5.17;61.95;101119.88;5017932;28;59520;-76
2021/12/23 06:32:56;;;;;;;;;48.50;38.25;;;;;5.13;61.58;101115.34;5036667;28;45478;-77
2021/12/23 06:35:31;;;;;;;;;58.50;42.50;;;;;5.13;61.58;101125.81;5018497;28;45567;-75
2021/12/23 06:37:57;;;;;;;;;54.25;42.50;;;;;5.11;62.01;101117.00;5018850;28;45500;-77
2021/12/23 06:40:27;;;;;;;;;54.50;43.75;;;;;5.15;62.14;101127.66;5016165;28;47348;-78
2021/12/23 06:42:52;;;;;;;;;60.50;42.00;;;;;5.17;61.85;101128.63;5030882;28;47005;-76
2021/12/23 06:45:18;;;;;;;;;49.00;37.50;;;;;5.16;61.48;101124.19;5033713;28;55111;-77
2021/12/23 06:47:44;;;;;;;;;51.50;40.25;;;;;5.16;61.85;101118.94;5034913;28;45600;-77
2021/12/23 06:50:11;;;;;;;;;43.75;40.25;;;;;5.17;61.97;101114.63;5018505;28;46680;-77
2021/12/23 06:52:37;;;;;;;;;57.50;40.25;;;;;5.17;61.74;101135.59;5019043;28;45421;-77
2021/12/23 06:55:03;;;;;;;;;53.00;40.25;;;;;5.18;62.05;101122.53;5016887;28;45373;-77
2021/12/23 06:57:29;;;;;;;;;50.75;40.25;;;;;5.19;61.98;101129.56;5034630;28;45476;-77
2021/12/23 06:59:55;;;;;;;;;54.50;42.00;;;;;5.20;61.79;101125.22;5036456;28;45790;-77
2021/12/23 07:02:20;;;;;;;;;57.50;40.50;;;;;5.16;62.00;101121.56;5036816;28;45343;-77
2021/12/23 07:04:46;;;;;;;;;58.00;42.75;;;;;5.22;61.96;101137.53;5018766;28;45243;-77
2021/12/23 07:07:18;;;;;;;;;61.00;44.75;;;;;5.24;61.74;101127.13;5018985;28;45242;-77
2021/12/23 07:09:44;;;;;;;;;52.50;34.50;;;;;5.19;61.85;101129.56;5019064;28;46567;-77
2021/12/23 07:12:11;;;;;;;;;51.00;40.75;;;;;5.26;62.21;101142.03;5035053;28;45439;-77
2021/12/23 07:14:36;;;;;;;;;57.75;41.00;;;;;5.30;61.98;101136.91;5027479;28;46506;-77
2021/12/23 07:17:02;;;;;;;;;52.50;42.00;;;;;5.31;61.98;101136.06;5017616;28;45416;-78
2021/12/23 07:19:27;;;;;;;;;52.50;40.50;;;;;5.32;62.24;101132.63;5004769;28;47272;-77
2021/12/23 07:21:53;;;;;;;;;62.00;41.50;;;;;5.27;61.73;101127.19;5039542;28;45392;-77
2021/12/23 07:24:18;;;;;;;;;40.50;32.50;;;;;5.31;61.54;101134.34;5041026;28;45496;-77
2021/12/23 07:26:44;;;;;;;;;46.00;37.25;;;;;5.33;61.82;101137.94;5039358;28;54347;-77
2021/12/23 07:29:21;;;;;;;;;52.00;40.00;;;;;5.34;61.79;101142.31;5037515;28;45729;-79
2021/12/23 07:31:46;;;;;;;;;53.50;35.50;;;;;5.35;62.09;101146.72;5037125;28;45625;-78
2021/12/23 07:34:12;;;;;;;;;54.25;40.75;;;;;5.36;61.90;101152.84;5037003;28;46010;-78
2021/12/23 07:36:37;;;;;;;;;47.50;38.75;;;;;5.33;62.13;101137.94;5002107;28;45599;-77
2021/12/23 07:39:06;;;;;;;;;55.25;42.75;;;;;5.40;62.06;101152.13;5017745;28;60006;-78
2021/12/23 07:41:32;;;;;;;;;59.50;40.00;;;;;5.39;61.77;101153.88;5034556;28;45818;-76
2021/12/23 07:44:04;;;;;;;;;55.50;41.00;;;;;5.45;62.08;101147.97;5039088;28;45288;-77
2021/12/23 07:46:32;;;;;;;;;60.25;42.00;;;;;5.51;62.20;101148.19;5036144;28;45475;-78
2021/12/23 07:48:57;;;;;;;;;60.25;37.25;;;;;5.56;62.24;101136.13;5020866;28;46780;-77
2021/12/23 07:51:23;;;;;;;;;64.00;42.25;;;;;5.58;62.00;101139.69;5021886;28;45513;-77
2021/12/23 07:53:49;;;;;;;;;50.50;38.75;;;;;5.71;62.00;101146.28;5029047;28;45813;-77
2021/12/23 07:56:14;;;;;;;;;60.50;39.50;;;;;5.76;62.13;101137.75;5009782;28;45565;-77
2021/12/23 07:58:39;;;;;;;;;55.00;40.75;;;;;5.83;61.98;101136.22;5038713;28;45986;-77
2021/12/23 08:01:05;;;;;;;;;51.50;38.00;;;;;5.89;61.84;101125.06;5021928;28;62175;-76
2021/12/23 08:03:30;;;;;;;;;49.75;39.75;;;;;5.90;61.87;101114.63;5135475;22;46272;-77
2021/12/23 08:05:56;;;;;;;;;59.75;41.25;;;;;5.88;61.53;101108.44;5019727;28;50537;-77
2021/12/23 08:08:21;;;;;;;;;47.50;37.25;;;;;5.97;61.67;101115.78;5001031;28;45378;-77
2021/12/23 08:10:48;;;;;;;;;52.25;41.75;;;;;6.10;61.66;101117.06;4985792;28;48227;-77
2021/12/23 08:13:13;;;;;;;;;47.00;38.25;;;;;6.10;61.84;101125.81;5020221;28;45297;-77
2021/12/23 08:15:39;;;;;;;;;55.25;39.75;;;;;6.12;61.71;101116.28;5020016;28;45462;-77
2021/12/23 08:18:04;;;;;;;;;57.75;39.75;;;;;6.21;61.72;101127.06;5002420;28;61488;-78
2021/12/23 08:20:29;;;;;;;;;48.25;36.00;;;;;6.27;61.59;101118.53;5002307;28;57932;-78
2021/12/23 08:22:55;;;;;;;;;58.50;40.00;;;;;6.27;61.39;101110.66;5021145;28;45446;-78
2021/12/23 08:25:22;;;;;;;;;56.00;41.75;;;;;6.35;61.73;101122.31;5002403;28;45549;-78
2021/12/23 08:27:48;;;;;;;;;49.50;38.25;;;;;6.38;61.59;101125.00;5001861;28;46502;-78
2021/12/23 08:30:14;;;;;;;;;56.75;40.75;;;;;6.43;61.70;101123.41;5000081;28;58012;-79
2021/12/23 08:32:39;;;;;;;;;56.50;40.50;;;;;6.47;61.38;101114.81;4998277;28;45372;-79
2021/12/23 08:35:06;;;;;;;;;46.00;35.25;;;;;6.46;61.61;101114.78;5000008;28;45317;-78
2021/12/23 08:37:31;;;;;;;;;43.50;35.25;;;;;6.54;61.17;101108.91;5016843;28;46269;-78
2021/12/23 08:39:56;;;;;;;;;44.75;38.75;;;;;6.58;61.43;101112.53;5017430;28;49228;-78
2021/12/23 08:42:23;;;;;;;;;44.00;36.00;;;;;6.59;61.50;101110.81;5017074;28;45475;-77
2021/12/23 08:44:48;;;;;;;;;58.25;39.50;;;;;6.67;61.57;101122.44;5014504;28;45611;-77
2021/12/23 08:47:14;;;;;;;;;48.00;36.25;;;;;6.72;61.25;101110.34;5015538;28;59394;-77
2021/12/23 08:49:43;;;;;;;;;54.75;38.75;;;;;6.69;61.37;101103.25;4999698;28;45492;-77
2021/12/23 08:52:09;;;;;;;;;52.75;40.00;;;;;6.79;61.41;101112.31;5018175;28;45479;-80
2021/12/23 08:54:34;;;;;;;;;57.50;41.75;;;;;6.81;61.37;101102.75;5000415;28;45257;-80
2021/12/23 08:57:00;;;;;;;;;58.00;41.00;;;;;6.88;60.96;101109.09;5016005;28;45659;-78
2021/12/23 08:59:26;;;;;;;;;42.75;31.75;;;;;6.86;61.41;101102.88;5014806;28;57404;-80
2021/12/23 09:01:52;;;;;;;;;59.00;39.00;;;;;6.93;61.23;101110.13;5015555;28;45397;-79
2021/12/23 09:04:17;;;;;;;;;54.75;37.25;;;;;6.90;61.23;101097.78;4997900;28;47147;-80
2021/12/23 09:06:43;;;;;;;;;49.00;36.00;;;;;6.98;61.30;101106.78;4998065;28;47561;-80
2021/12/23 09:09:08;;;;;;;;;52.25;41.25;;;;;7.01;61.20;101117.38;4997966;28;45490;-79
2021/12/23 09:11:34;;;;;;;;;48.25;40.25;;;;;6.99;61.10;101103.31;5015403;28;45797;-80
2021/12/23 09:13:59;;;;;;;;;50.75;41.25;;;;;7.04;61.22;101109.59;4996761;28;45552;-79
2021/12/23 09:16:25;;;;;;;;;46.00;36.50;;;;;7.15;61.23;101123.03;5014952;28;46739;-79
2021/12/23 09:18:50;;;;;;;;;41.75;34.50;;;;;7.21;61.22;101115.34;5016106;28;45495;-79
2021/12/23 09:21:16;;;;;;;;;55.00;40.25;;;;;7.24;61.27;101118.03;5015329;28;52777;-79
2021/12/23 09:23:42;;;;;;;;;51.00;37.50;;;;;7.22;61.18;101101.34;4997826;28;45492;-79
2021/12/23 09:26:10;;;;;;;;;52.50;38.25;;;;;7.31;61.33;101109.50;5014939;28;46472;-79
2021/12/23 09:34:04;;;;;;;;;48.25;39.50;;;;;7.40;61.55;101110.59;5014971;28;45595;-78
2021/12/23 09:36:29;;;;;;;;;56.50;37.75;;;;;7.42;61.39;101103.66;5014880;28;63143;-79
2021/12/23 09:38:55;;;;;;;;;49.00;35.50;;;;;7.46;61.40;101105.53;5015041;28;59205;-78
2021/12/23 09:41:21;;;;;;;;;45.25;35.50;;;;;7.47;61.61;101104.69;5014802;28;45940;-79
2021/12/23 09:43:46;;;;;;;;;56.50;38.25;;;;;7.47;61.81;101094.19;5015108;28;45576;-79
2021/12/23 09:46:14;;;;;;;;;50.75;38.50;;;;;7.49;61.80;101085.47;5014342;28;46410;-79
2021/12/23 09:48:42;;;;;;;;;51.75;37.75;;;;;7.61;61.53;101100.69;5014093;28;45526;-79
2021/12/23 09:51:07;;;;;;;;;54.75;41.00;;;;;7.65;61.74;101096.41;5014253;28;45472;-79
2021/12/23 09:53:34;;;;;;;;;46.00;35.75;;;;;7.70;61.95;101092.16;4998349;28;45510;-78
2021/12/23 09:56:00;;;;;;;;;39.75;31.25;;;;;7.73;61.89;101085.25;5014960;28;47544;-79
2021/12/23 09:58:25;;;;;;;;;47.00;33.25;;;;;7.79;61.92;101095.06;5021749;28;45743;-79
2021/12/23 10:00:55;;;;;;;;;48.25;39.25;;;;;7.79;61.80;101087.16;4971880;28;45590;-78
2021/12/23 10:03:21;;;;;;;;;41.25;33.25;;;;;7.77;62.00;101067.81;4999846;28;45792;-78
2021/12/23 10:05:50;;;;;;;;;43.50;36.25;;;;;7.92;62.33;101085.72;5013094;28;47300;-78
2021/12/23 10:08:39;;;;;;;;;39.25;34.50;;;;;7.96;62.21;101077.06;5018472;28;45594;-79
2021/12/23 10:11:15;;;;;;;;;39.25;33.00;;;;;7.91;62.12;101062.91;4982970;28;45500;-79
2021/12/23 10:38:29;;;;;;;;;41.50;30.75;;;;;8.47;62.71;101043.28;4999993;28;45619;-80
2021/12/23 10:41:00;;;;;;;;;42.75;33.25;;;;;8.46;62.77;101022.19;4957180;28;45591;-79
2021/12/23 10:43:31;;;;;;;;;38.75;31.25;;;;;8.51;62.91;101021.44;5006872;28;45776;-79
2021/12/23 10:46:03;;;;;;;;;42.75;31.25;;;;;8.59;63.30;101027.78;4981553;28;46374;-79
2021/12/23 10:48:32;;;;;;;;;44.25;38.25;;;;;8.63;63.26;101032.25;5011905;28;46001;-78
2021/12/23 10:51:07;;;;;;;;;46.00;37.50;;;;;8.60;62.95;101019.00;4977288;28;45551;-79
2021/12/23 10:53:51;;;;;;;;;46.00;38.75;;;;;8.72;63.23;101028.03;4995138;28;45547;-78
2021/12/23 10:59:19;;;;;;;;;44.00;32.50;;;;;8.70;63.34;101001.69;4996151;28;45886;-78
2021/12/23 11:02:04;;;;;;;;;44.00;35.75;;;;;8.87;63.70;101010.81;5010217;28;45534;-77
2021/12/23 11:04:53;;;;;;;;;37.50;32.00;;;;;8.91;63.77;101011.78;5013647;28;45969;-78
2021/12/23 11:07:27;;;;;;;;;37.75;33.50;;;;;8.97;63.77;101018.91;4988862;28;45598;-78
2021/12/23 11:10:02;;;;;;;;;35.25;29.25;;;;;8.99;63.63;101010.16;4977744;28;46202;-79
2021/12/23 11:37:42;;;;;;;;;46.50;32.50;;;;;9.24;64.64;101010.66;5012283;28;45804;-78
2021/12/23 11:40:25;;;;;;;;;38.75;31.00;;;;;9.23;64.66;101001.88;4986860;28;45500;-79
2021/12/23 11:45:25;;;;;;;;;39.00;28.00;;;;;9.24;65.00;100987.84;4996079;28;45488;-78
2021/12/23 11:47:52;;;;;;;;;30.50;28.75;;;;;9.28;65.40;100988.78;4978546;28;45448;-77
2021/12/23 11:50:23;;;;;;;;;38.75;27.00;;;;;9.31;65.19;100992.34;4996117;28;46132;-78
2021/12/23 11:52:48;;;;;;;;;42.00;27.25;;;;;9.32;66.14;100987.97;5012494;28;47643;-79
2021/12/23 11:55:14;;;;;;;;;46.00;30.75;;;;;9.31;66.20;100986.19;4998298;28;45464;-79
2021/12/23 11:57:41;;;;;;;;;38.00;26.25;;;;;9.28;66.27;100976.50;5018557;28;45508;-80
2021/12/23 12:00:21;;;;;;;;;38.00;32.00;;;;;9.28;66.38;100968.59;5005629;28;45877;-78
2021/12/23 12:02:58;;;;;;;;;30.50;24.00;;;;;9.36;66.19;100974.00;5018957;28;47757;-80
2021/12/23 12:05:23;;;;;;;;;31.75;28.25;;;;;9.34;66.39;100971.34;5021249;28;46094;-80
2021/12/23 12:07:49;;;;;;;;;33.00;27.25;;;;;9.36;66.44;100971.34;5022787;28;54051;-81
2021/12/23 12:10:19;;;;;;;;;31.00;27.50;;;;;9.40;66.82;100960.91;4988543;28;50453;-78
2021/12/23 12:13:04;;;;;;;;;27.50;24.50;;;;;9.44;67.61;100964.50;5003736;28;46164;-79
2021/12/23 12:15:39;;;;;;;;;40.50;29.75;;;;;9.49;66.65;100954.03;5022623;28;45468;-79
2021/12/23 12:18:05;;;;;;;;;32.00;27.00;;;;;9.52;66.64;100948.78;5024149;28;45894;-78
2021/12/23 12:20:53;;;;;;;;;30.00;24.00;;;;;9.59;67.01;100937.53;5022429;28;45450;-79
2021/12/23 12:23:29;;;;;;;;;29.00;24.50;;;;;9.70;66.69;100934.19;4994808;28;47737;-78